sensor_id;sensor_type;location;lat;lon;timestamp;temperature;humidity
14775;DHT22;7479;47.042;15.160;2022-09-24T06:21:07;7.40;99.90
14775;DHT22;7479;47.042;15.160;2022-09-24T06:26:02;7.60;99.90
14775;DHT22;7479;47.042;15.160;2022-09-24T06:30:58;7.80;99.90
14775;DHT22;7479;47.042;15.160;2022-09-24T06:45:24;8.60;99.90
14775;DHT22;7479;47.042;15.160;2022-09-24T06:50:18;8.60;99.90
14775;DHT22;7479;47.042;15.160;2022-09-24T07:08:39;9.00;99.90
14775;DHT22;7479;47.042;15.160;2022-09-24T07:13:32;9.30;99.90
14775;DHT22;7479;47.042;15.160;2022-09-24T07:30:17;10.10;99.90
14775;DHT22;7479;47.042;15.160;2022-09-24T07:35:12;10.20;99.90
14775;DHT22;7479;47.042;15.160;2022-09-24T07:40:07;10.50;99.90
14775;DHT22;7479;47.042;15.160;2022-09-24T07:55:25;11.20;99.90
14775;DHT22;7479;47.042;15.160;2022-09-24T08:00:20;11.40;99.90
14775;DHT22;7479;47.042;15.160;2022-09-24T08:05:15;11.70;99.90
14775;DHT22;7479;47.042;15.160;2022-09-24T08:10:09;12.10;99.90
14775;DHT22;7479;47.042;15.160;2022-09-24T08:15:04;12.40;99.90
14775;DHT22;7479;47.042;15.160;2022-09-24T08:19:58;12.80;99.90
14775;DHT22;7479;47.042;15.160;2022-09-24T08:24:54;13.20;99.90
14775;DHT22;7479;47.042;15.160;2022-09-24T08:29:49;13.50;99.90
14775;DHT22;7479;47.042;15.160;2022-09-24T08:34:44;13.90;99.90
14775;DHT22;7479;47.042;15.160;2022-09-24T08:39:38;14.20;99.90
14775;DHT22;7479;47.042;15.160;2022-09-24T08:44:36;14.60;99.90
14775;DHT22;7479;47.042;15.160;2022-09-24T08:49:54;14.90;99.90
14775;DHT22;7479;47.042;15.160;2022-09-24T08:54:50;15.10;99.90
14775;DHT22;7479;47.042;15.160;2022-09-24T08:59:49;15.20;99.90
14775;DHT22;7479;47.042;15.160;2022-09-24T09:04:55;15.40;99.90
14775;DHT22;7479;47.042;15.160;2022-09-24T09:09:54;15.50;99.90
14775;DHT22;7479;47.042;15.160;2022-09-24T09:14:54;15.70;99.90
14775;DHT22;7479;47.042;15.160;2022-09-24T09:19:56;16.00;99.90
14775;DHT22;7479;47.042;15.160;2022-09-24T09:24:54;16.20;99.90
14775;DHT22;7479;47.042;15.160;2022-09-24T09:29:56;16.20;99.90
14775;DHT22;7479;47.042;15.160;2022-09-24T09:34:54;16.30;99.90
14775;DHT22;7479;47.042;15.160;2022-09-24T09:40:08;16.60;99.90
14775;DHT22;7479;47.042;15.160;2022-09-24T09:45:17;16.90;99.90
14775;DHT22;7479;47.042;15.160;2022-09-24T09:50:24;17.30;99.90
14775;DHT22;7479;47.042;15.160;2022-09-24T09:55:23;17.60;99.90
14775;DHT22;7479;47.042;15.160;2022-09-24T10:00:26;17.90;99.90
14775;DHT22;7479;47.042;15.160;2022-09-24T10:05:21;18.40;99.20
14775;DHT22;7479;47.042;15.160;2022-09-24T10:10:23;18.80;98.40
14775;DHT22;7479;47.042;15.160;2022-09-24T10:15:18;18.90;98.10
14775;DHT22;7479;47.042;15.160;2022-09-24T10:20:17;19.30;97.90
14775;DHT22;7479;47.042;15.160;2022-09-24T10:25:17;19.70;96.30
14775;DHT22;7479;47.042;15.160;2022-09-24T10:30:15;19.80;97.40
14775;DHT22;7479;47.042;15.160;2022-09-24T10:35:29;20.40;95.90
14775;DHT22;7479;47.042;15.160;2022-09-24T10:40:24;20.90;95.00
14775;DHT22;7479;47.042;15.160;2022-09-24T10:45:32;21.20;94.30
14775;DHT22;7479;47.042;15.160;2022-09-24T10:50:38;21.20;93.00
14775;DHT22;7479;47.042;15.160;2022-09-24T10:55:40;21.10;92.70
14775;DHT22;7479;47.042;15.160;2022-09-24T11:00:46;21.30;92.10
14775;DHT22;7479;47.042;15.160;2022-09-24T11:05:47;21.60;91.60
14775;DHT22;7479;47.042;15.160;2022-09-24T11:10:54;21.90;91.10
14775;DHT22;7479;47.042;15.160;2022-09-24T11:16:09;22.00;90.60
14775;DHT22;7479;47.042;15.160;2022-09-24T11:21:14;21.90;90.10
14775;DHT22;7479;47.042;15.160;2022-09-24T11:26:23;21.80;90.90
14775;DHT22;7479;47.042;15.160;2022-09-24T11:31:25;22.20;89.40
14775;DHT22;7479;47.042;15.160;2022-09-24T11:36:40;22.50;88.80
14775;DHT22;7479;47.042;15.160;2022-09-24T11:41:43;22.70;88.50
14775;DHT22;7479;47.042;15.160;2022-09-24T11:46:54;23.00;86.70
14775;DHT22;7479;47.042;15.160;2022-09-24T11:52:01;23.00;87.80
14775;DHT22;7479;47.042;15.160;2022-09-24T11:57:02;22.90;87.70
14775;DHT22;7479;47.042;15.160;2022-09-24T12:02:06;23.10;87.30
14775;DHT22;7479;47.042;15.160;2022-09-24T12:07:06;23.10;86.10
14775;DHT22;7479;47.042;15.160;2022-09-24T12:12:07;22.70;87.70
14775;DHT22;7479;47.042;15.160;2022-09-24T12:17:09;22.70;87.90
14775;DHT22;7479;47.042;15.160;2022-09-24T12:22:09;23.10;86.60
14775;DHT22;7479;47.042;15.160;2022-09-24T12:27:12;23.40;86.50
14775;DHT22;7479;47.042;15.160;2022-09-24T12:32:15;23.40;84.70
14775;DHT22;7479;47.042;15.160;2022-09-24T12:37:34;23.20;86.30
14775;DHT22;7479;47.042;15.160;2022-09-24T12:42:33;23.50;86.20
14775;DHT22;7479;47.042;15.160;2022-09-24T12:47:37;24.00;84.30
14775;DHT22;7479;47.042;15.160;2022-09-24T12:52:39;24.30;83.00
14775;DHT22;7479;47.042;15.160;2022-09-24T12:57:36;24.40;83.60
14775;DHT22;7479;47.042;15.160;2022-09-24T13:02:45;23.80;82.10
14775;DHT22;7479;47.042;15.160;2022-09-24T13:07:40;23.50;82.70
14775;DHT22;7479;47.042;15.160;2022-09-24T13:12:34;23.00;79.00
14775;DHT22;7479;47.042;15.160;2022-09-24T13:17:28;22.60;79.00
14775;DHT22;7479;47.042;15.160;2022-09-24T13:22:26;22.40;77.60
14775;DHT22;7479;47.042;15.160;2022-09-24T13:27:32;22.60;84.50
14775;DHT22;7479;47.042;15.160;2022-09-24T13:32:31;22.80;84.50
14775;DHT22;7479;47.042;15.160;2022-09-24T13:37:33;23.00;84.00
14775;DHT22;7479;47.042;15.160;2022-09-24T13:42:34;23.50;82.30
14775;DHT22;7479;47.042;15.160;2022-09-24T13:47:34;23.20;80.40
14775;DHT22;7479;47.042;15.160;2022-09-24T13:52:32;22.90;81.50
14775;DHT22;7479;47.042;15.160;2022-09-24T13:57:28;23.00;80.60
14775;DHT22;7479;47.042;15.160;2022-09-24T14:02:24;23.20;80.80
14775;DHT22;7479;47.042;15.160;2022-09-24T14:07:19;23.90;79.80
14775;DHT22;7479;47.042;15.160;2022-09-24T14:12:17;24.60;77.30
14775;DHT22;7479;47.042;15.160;2022-09-24T14:17:14;24.40;77.60
14775;DHT22;7479;47.042;15.160;2022-09-24T14:22:13;24.00;75.60
14775;DHT22;7479;47.042;15.160;2022-09-24T14:27:11;25.50;76.00
14775;DHT22;7479;47.042;15.160;2022-09-24T14:32:20;26.30;73.40
14775;DHT22;7479;47.042;15.160;2022-09-24T14:37:17;25.40;76.50
14775;DHT22;7479;47.042;15.160;2022-09-24T14:42:20;25.40;73.20
14775;DHT22;7479;47.042;15.160;2022-09-24T14:47:27;24.50;76.10
14775;DHT22;7479;47.042;15.160;2022-09-24T14:52:28;23.40;80.00
14775;DHT22;7479;47.042;15.160;2022-09-24T14:57:23;22.80;82.00
14775;DHT22;7479;47.042;15.160;2022-09-24T15:02:20;22.50;82.90
14775;DHT22;7479;47.042;15.160;2022-09-24T15:07:20;21.70;85.50
14775;DHT22;7479;47.042;15.160;2022-09-24T15:12:18;21.20;86.90
14775;DHT22;7479;47.042;15.160;2022-09-24T15:17:20;21.00;86.10
14775;DHT22;7479;47.042;15.160;2022-09-24T15:22:19;20.90;88.70
14775;DHT22;7479;47.042;15.160;2022-09-24T15:27:16;20.60;90.00
14775;DHT22;7479;47.042;15.160;2022-09-24T15:32:14;20.40;90.60
14775;DHT22;7479;47.042;15.160;2022-09-24T15:37:11;20.20;90.30
14775;DHT22;7479;47.042;15.160;2022-09-24T15:42:08;20.00;91.30
14775;DHT22;7479;47.042;15.160;2022-09-24T15:47:02;19.70;91.50
14775;DHT22;7479;47.042;15.160;2022-09-24T15:52:00;19.50;92.80
14775;DHT22;7479;47.042;15.160;2022-09-24T15:56:54;19.40;92.90
14775;DHT22;7479;47.042;15.160;2022-09-24T16:01:51;19.40;93.50
14775;DHT22;7479;47.042;15.160;2022-09-24T16:06:46;19.30;94.40
14775;DHT22;7479;47.042;15.160;2022-09-24T16:11:40;19.10;94.80
14775;DHT22;7479;47.042;15.160;2022-09-24T16:16:35;19.00;95.10
14775;DHT22;7479;47.042;15.160;2022-09-24T16:21:31;18.90;94.70
14775;DHT22;7479;47.042;15.160;2022-09-24T16:26:25;18.70;95.30
14775;DHT22;7479;47.042;15.160;2022-09-24T16:31:19;18.50;95.90
14775;DHT22;7479;47.042;15.160;2022-09-24T16:36:14;18.40;96.60
14775;DHT22;7479;47.042;15.160;2022-09-24T16:41:09;18.20;95.30
14775;DHT22;7479;47.042;15.160;2022-09-24T16:46:06;18.10;94.70
14775;DHT22;7479;47.042;15.160;2022-09-24T16:51:04;18.00;95.50
14775;DHT22;7479;47.042;15.160;2022-09-24T16:56:10;17.80;95.60
14775;DHT22;7479;47.042;15.160;2022-09-24T17:01:09;17.70;96.50
14775;DHT22;7479;47.042;15.160;2022-09-24T17:06:04;17.50;95.70
14775;DHT22;7479;47.042;15.160;2022-09-24T17:10:58;17.40;96.40
14775;DHT22;7479;47.042;15.160;2022-09-24T17:15:53;17.20;97.20
14775;DHT22;7479;47.042;15.160;2022-09-24T17:20:47;17.10;96.00
14775;DHT22;7479;47.042;15.160;2022-09-24T17:25:40;17.00;95.70
14775;DHT22;7479;47.042;15.160;2022-09-24T17:30:35;17.00;95.90
14775;DHT22;7479;47.042;15.160;2022-09-24T17:35:31;17.00;95.80
14775;DHT22;7479;47.042;15.160;2022-09-24T17:40:25;17.00;97.10
14775;DHT22;7479;47.042;15.160;2022-09-24T17:45:19;16.90;98.40
14775;DHT22;7479;47.042;15.160;2022-09-24T17:50:13;16.80;99.30
14775;DHT22;7479;47.042;15.160;2022-09-24T17:55:09;16.70;99.70
14775;DHT22;7479;47.042;15.160;2022-09-24T18:00:03;16.60;99.90
14775;DHT22;7479;47.042;15.160;2022-09-24T18:05:02;16.50;99.90
14775;DHT22;7479;47.042;15.160;2022-09-24T18:09:56;16.40;99.90
14775;DHT22;7479;47.042;15.160;2022-09-24T18:14:51;16.30;99.90
14775;DHT22;7479;47.042;15.160;2022-09-24T18:19:46;16.10;99.90
14775;DHT22;7479;47.042;15.160;2022-09-24T18:24:40;15.90;99.90
14775;DHT22;7479;47.042;15.160;2022-09-24T18:29:35;15.80;99.90
14775;DHT22;7479;47.042;15.160;2022-09-24T18:34:32;15.70;99.90
14775;DHT22;7479;47.042;15.160;2022-09-24T18:39:26;15.50;99.90
14775;DHT22;7479;47.042;15.160;2022-09-24T18:44:20;15.40;99.90
14775;DHT22;7479;47.042;15.160;2022-09-24T18:49:14;15.30;99.90
14775;DHT22;7479;47.042;15.160;2022-09-24T18:54:12;15.10;99.90
14775;DHT22;7479;47.042;15.160;2022-09-24T18:59:10;14.90;99.90
14775;DHT22;7479;47.042;15.160;2022-09-24T19:04:05;14.90;99.90
14775;DHT22;7479;47.042;15.160;2022-09-24T19:09:00;14.80;99.90
14775;DHT22;7479;47.042;15.160;2022-09-24T19:13:55;14.70;99.90
14775;DHT22;7479;47.042;15.160;2022-09-24T19:18:49;14.60;99.90
14775;DHT22;7479;47.042;15.160;2022-09-24T19:23:44;14.50;99.90
14775;DHT22;7479;47.042;15.160;2022-09-24T19:28:39;14.40;99.90
14775;DHT22;7479;47.042;15.160;2022-09-24T19:33:35;14.40;99.90
